sensor_id;sensor_type;location;lat;lon;timestamp;P1;durP1;ratioP1;P2;durP2;ratioP2
9334;SDS011;4706;41.844;26.082;2022-11-30T00:00:17;3.13;;;2.83;;
9334;SDS011;4706;41.844;26.082;2022-11-30T00:02:44;2.53;;;2.33;;
9334;SDS011;4706;41.844;26.082;2022-11-30T00:05:10;4.60;;;3.42;;
9334;SDS011;4706;41.844;26.082;2022-11-30T00:07:37;4.05;;;3.00;;
9334;SDS011;4706;41.844;26.082;2022-11-30T00:10:03;6.13;;;4.88;;
9334;SDS011;4706;41.844;26.082;2022-11-30T00:12:30;7.65;;;6.18;;
9334;SDS011;4706;41.844;26.082;2022-11-30T00:14:56;2.90;;;2.60;;
9334;SDS011;4706;41.844;26.082;2022-11-30T00:17:21;5.35;;;4.10;;
9334;SDS011;4706;41.844;26.082;2022-11-30T00:19:47;4.82;;;3.38;;
9334;SDS011;4706;41.844;26.082;2022-11-30T00:22:12;2.38;;;2.17;;
9334;SDS011;4706;41.844;26.082;2022-11-30T00:24:38;4.80;;;4.40;;
9334;SDS011;4706;41.844;26.082;2022-11-30T00:27:03;3.63;;;3.33;;
9334;SDS011;4706;41.844;26.082;2022-11-30T00:29:29;2.80;;;2.60;;
9334;SDS011;4706;41.844;26.082;2022-11-30T00:31:54;3.25;;;2.97;;
9334;SDS011;4706;41.844;26.082;2022-11-30T00:34:20;4.30;;;3.92;;
9334;SDS011;4706;41.844;26.082;2022-11-30T00:36:45;3.50;;;3.20;;
9334;SDS011;4706;41.844;26.082;2022-11-30T00:39:11;3.33;;;2.33;;
9334;SDS011;4706;41.844;26.082;2022-11-30T00:41:38;4.53;;;3.65;;
9334;SDS011;4706;41.844;26.082;2022-11-30T00:44:04;3.55;;;3.25;;
9334;SDS011;4706;41.844;26.082;2022-11-30T00:46:29;3.08;;;2.78;;
9334;SDS011;4706;41.844;26.082;2022-11-30T00:48:55;2.50;;;2.30;;
9334;SDS011;4706;41.844;26.082;2022-11-30T00:51:20;2.92;;;2.72;;
9334;SDS011;4706;41.844;26.082;2022-11-30T00:53:46;2.55;;;2.35;;
9334;SDS011;4706;41.844;26.082;2022-11-30T00:56:12;3.80;;;2.58;;
9334;SDS011;4706;41.844;26.082;2022-11-30T00:58:39;2.78;;;2.53;;
9334;SDS011;4706;41.844;26.082;2022-11-30T01:01:05;3.10;;;2.80;;
9334;SDS011;4706;41.844;26.082;2022-11-30T01:03:32;3.05;;;2.85;;
9334;SDS011;4706;41.844;26.082;2022-11-30T01:06:02;2.55;;;2.33;;
9334;SDS011;4706;41.844;26.082;2022-11-30T01:08:28;3.38;;;2.67;;
9334;SDS011;4706;41.844;26.082;2022-11-30T01:10:53;2.80;;;2.60;;
9334;SDS011;4706;41.844;26.082;2022-11-30T01:13:22;2.45;;;2.25;;
9334;SDS011;4706;41.844;26.082;2022-11-30T01:15:48;3.40;;;3.10;;
9334;SDS011;4706;41.844;26.082;2022-11-30T01:18:14;4.03;;;3.72;;
9334;SDS011;4706;41.844;26.082;2022-11-30T01:20:43;3.40;;;3.10;;
9334;SDS011;4706;41.844;26.082;2022-11-30T01:23:09;4.60;;;4.20;;
9334;SDS011;4706;41.844;26.082;2022-11-30T01:25:35;4.10;;;3.80;;
9334;SDS011;4706;41.844;26.082;2022-11-30T01:28:00;3.00;;;2.80;;
9334;SDS011;4706;41.844;26.082;2022-11-30T01:30:26;3.13;;;2.85;;
9334;SDS011;4706;41.844;26.082;2022-11-30T01:32:51;3.22;;;2.80;;
9334;SDS011;4706;41.844;26.082;2022-11-30T01:35:17;2.95;;;2.58;;
9334;SDS011;4706;41.844;26.082;2022-11-30T01:37:42;2.83;;;2.63;;
9334;SDS011;4706;41.844;26.082;2022-11-30T01:40:09;2.65;;;2.45;;
9334;SDS011;4706;41.844;26.082;2022-11-30T01:42:35;3.03;;;2.78;;
9334;SDS011;4706;41.844;26.082;2022-11-30T01:45:02;3.28;;;2.97;;
9334;SDS011;4706;41.844;26.082;2022-11-30T01:47:30;3.63;;;3.33;;
9334;SDS011;4706;41.844;26.082;2022-11-30T01:50:08;3.30;;;3.00;;
9334;SDS011;4706;41.844;26.082;2022-11-30T01:52:45;4.15;;;3.03;;
9334;SDS011;4706;41.844;26.082;2022-11-30T01:55:18;2.75;;;2.50;;
9334;SDS011;4706;41.844;26.082;2022-11-30T01:57:48;2.80;;;2.60;;
9334;SDS011;4706;41.844;26.082;2022-11-30T02:00:16;4.00;;;3.70;;
9334;SDS011;4706;41.844;26.082;2022-11-30T02:02:46;3.17;;;2.88;;
9334;SDS011;4706;41.844;26.082;2022-11-30T02:05:32;4.00;;;3.60;;
9334;SDS011;4706;41.844;26.082;2022-11-30T02:08:00;4.15;;;3.75;;
9334;SDS011;4706;41.844;26.082;2022-11-30T02:10:29;4.60;;;3.67;;
9334;SDS011;4706;41.844;26.082;2022-11-30T02:13:15;3.63;;;3.03;;
9334;SDS011;4706;41.844;26.082;2022-11-30T02:19:19;3.22;;;3.00;;
9334;SDS011;4706;41.844;26.082;2022-11-30T02:21:24;3.83;;;3.47;;
9334;SDS011;4706;41.844;26.082;2022-11-30T02:26:58;4.13;;;3.30;;
9334;SDS011;4706;41.844;26.082;2022-11-30T02:32:26;3.60;;;3.30;;
9334;SDS011;4706;41.844;26.082;2022-11-30T02:34:55;4.07;;;3.78;;
9334;SDS011;4706;41.844;26.082;2022-11-30T02:37:23;3.80;;;3.50;;
9334;SDS011;4706;41.844;26.082;2022-11-30T02:39:50;4.30;;;3.45;;
9334;SDS011;4706;41.844;26.082;2022-11-30T02:42:15;3.15;;;2.85;;
9334;SDS011;4706;41.844;26.082;2022-11-30T02:44:42;3.33;;;3.03;;
9334;SDS011;4706;41.844;26.082;2022-11-30T02:47:14;3.40;;;3.10;;
9334;SDS011;4706;41.844;26.082;2022-11-30T02:50:13;3.42;;;3.13;;
9334;SDS011;4706;41.844;26.082;2022-11-30T02:52:41;3.03;;;2.75;;
9334;SDS011;4706;41.844;26.082;2022-11-30T02:55:08;3.17;;;2.88;;
9334;SDS011;4706;41.844;26.082;2022-11-30T02:57:35;3.88;;;3.10;;
9334;SDS011;4706;41.844;26.082;2022-11-30T03:00:03;3.67;;;3.30;;
9334;SDS011;4706;41.844;26.082;2022-11-30T03:02:31;3.60;;;3.30;;
9334;SDS011;4706;41.844;26.082;2022-11-30T03:04:57;4.93;;;3.78;;
9334;SDS011;4706;41.844;26.082;2022-11-30T03:07:22;3.08;;;2.88;;
9334;SDS011;4706;41.844;26.082;2022-11-30T03:09:48;2.47;;;2.28;;
9334;SDS011;4706;41.844;26.082;2022-11-30T03:12:13;2.47;;;2.28;;
9334;SDS011;4706;41.844;26.082;2022-11-30T03:14:38;3.08;;;2.88;;
9334;SDS011;4706;41.844;26.082;2022-11-30T03:17:04;2.65;;;2.45;;
9334;SDS011;4706;41.844;26.082;2022-11-30T03:19:31;2.72;;;2.53;;
9334;SDS011;4706;41.844;26.082;2022-11-30T03:21:57;2.58;;;2.38;;
9334;SDS011;4706;41.844;26.082;2022-11-30T03:24:23;2.75;;;2.42;;
9334;SDS011;4706;41.844;26.082;2022-11-30T03:26:48;2.70;;;2.50;;
9334;SDS011;4706;41.844;26.082;2022-11-30T03:29:14;2.65;;;2.45;;
9334;SDS011;4706;41.844;26.082;2022-11-30T03:31:39;2.80;;;2.60;;
9334;SDS011;4706;41.844;26.082;2022-11-30T03:34:05;2.72;;;2.50;;
9334;SDS011;4706;41.844;26.082;2022-11-30T03:36:30;2.75;;;2.55;;
9334;SDS011;4706;41.844;26.082;2022-11-30T03:38:56;2.95;;;2.53;;
9334;SDS011;4706;41.844;26.082;2022-11-30T03:41:21;1.90;;;1.80;;
9334;SDS011;4706;41.844;26.082;2022-11-30T03:43:47;3.47;;;2.72;;
9334;SDS011;4706;41.844;26.082;2022-11-30T03:46:12;2.40;;;2.20;;
9334;SDS011;4706;41.844;26.082;2022-11-30T03:48:38;4.72;;;2.53;;
9334;SDS011;4706;41.844;26.082;2022-11-30T03:51:05;2.55;;;2.35;;
9334;SDS011;4706;41.844;26.082;2022-11-30T03:53:32;3.15;;;2.72;;
9334;SDS011;4706;41.844;26.082;2022-11-30T03:55:59;16.80;;;14.93;;
9334;SDS011;4706;41.844;26.082;2022-11-30T03:58:26;4.72;;;4.32;;
9334;SDS011;4706;41.844;26.082;2022-11-30T04:01:25;2.70;;;2.50;;
9334;SDS011;4706;41.844;26.082;2022-11-30T04:03:48;2.70;;;2.50;;
9334;SDS011;4706;41.844;26.082;2022-11-30T04:06:15;3.65;;;3.35;;
9334;SDS011;4706;41.844;26.082;2022-11-30T04:08:42;8.25;;;7.55;;
9334;SDS011;4706;41.844;26.082;2022-11-30T04:11:08;6.85;;;6.25;;
9334;SDS011;4706;41.844;26.082;2022-11-30T04:13:35;5.25;;;4.82;;
9334;SDS011;4706;41.844;26.082;2022-11-30T04:16:01;4.65;;;4.25;;
9334;SDS011;4706;41.844;26.082;2022-11-30T04:18:28;4.05;;;3.47;;
9334;SDS011;4706;41.844;26.082;2022-11-30T04:20:54;3.63;;;2.85;;
9334;SDS011;4706;41.844;26.082;2022-11-30T04:23:22;4.07;;;3.70;;
9334;SDS011;4706;41.844;26.082;2022-11-30T04:25:49;7.95;;;7.00;;
9334;SDS011;4706;41.844;26.082;2022-11-30T04:28:16;4.25;;;3.60;;
9334;SDS011;4706;41.844;26.082;2022-11-30T04:30:42;4.03;;;3.63;;
9334;SDS011;4706;41.844;26.082;2022-11-30T04:33:10;3.72;;;3.10;;
9334;SDS011;4706;41.844;26.082;2022-11-30T04:35:42;2.70;;;2.50;;
9334;SDS011;4706;41.844;26.082;2022-11-30T04:38:11;3.92;;;3.20;;
9334;SDS011;4706;41.844;26.082;2022-11-30T04:40:40;8.55;;;5.38;;
9334;SDS011;4706;41.844;26.082;2022-11-30T04:43:07;4.80;;;3.30;;
9334;SDS011;4706;41.844;26.082;2022-11-30T04:45:34;2.33;;;2.10;;
9334;SDS011;4706;41.844;26.082;2022-11-30T04:47:59;4.18;;;3.42;;
9334;SDS011;4706;41.844;26.082;2022-11-30T04:50:25;5.07;;;4.68;;
9334;SDS011;4706;41.844;26.082;2022-11-30T04:52:50;4.65;;;4.25;;
9334;SDS011;4706;41.844;26.082;2022-11-30T04:55:16;4.13;;;3.70;;
9334;SDS011;4706;41.844;26.082;2022-11-30T04:57:44;4.63;;;4.22;;
9334;SDS011;4706;41.844;26.082;2022-11-30T05:00:11;4.63;;;4.22;;
9334;SDS011;4706;41.844;26.082;2022-11-30T05:02:38;4.53;;;4.15;;
9334;SDS011;4706;41.844;26.082;2022-11-30T05:05:03;4.13;;;3.75;;
9334;SDS011;4706;41.844;26.082;2022-11-30T05:07:29;3.17;;;2.90;;
9334;SDS011;4706;41.844;26.082;2022-11-30T05:09:55;4.35;;;3.95;;
9334;SDS011;4706;41.844;26.082;2022-11-30T05:12:20;4.60;;;4.20;;
9334;SDS011;4706;41.844;26.082;2022-11-30T05:14:46;3.33;;;3.03;;
9334;SDS011;4706;41.844;26.082;2022-11-30T05:17:11;3.35;;;3.05;;
9334;SDS011;4706;41.844;26.082;2022-11-30T05:19:37;4.75;;;4.35;;
9334;SDS011;4706;41.844;26.082;2022-11-30T05:22:02;5.47;;;4.93;;
9334;SDS011;4706;41.844;26.082;2022-11-30T05:24:28;5.50;;;5.00;;
9334;SDS011;4706;41.844;26.082;2022-11-30T05:26:53;4.65;;;4.10;;
9334;SDS011;4706;41.844;26.082;2022-11-30T05:29:20;9.05;;;4.82;;
9334;SDS011;4706;41.844;26.082;2022-11-30T05:31:45;6.70;;;6.10;;
9334;SDS011;4706;41.844;26.082;2022-11-30T05:34:11;8.43;;;7.50;;
9334;SDS011;4706;41.844;26.082;2022-11-30T05:36:37;8.70;;;7.63;;
9334;SDS011;4706;41.844;26.082;2022-11-30T05:39:03;8.00;;;6.90;;
9334;SDS011;4706;41.844;26.082;2022-11-30T05:41:28;17.70;;;12.10;;
9334;SDS011;4706;41.844;26.082;2022-11-30T05:43:54;10.40;;;9.15;;
9334;SDS011;4706;41.844;26.082;2022-11-30T05:46:20;8.15;;;7.20;;
9334;SDS011;4706;41.844;26.082;2022-11-30T05:48:46;6.90;;;6.13;;
9334;SDS011;4706;41.844;26.082;2022-11-30T05:51:13;6.72;;;6.03;;
9334;SDS011;4706;41.844;26.082;2022-11-30T05:53:43;7.05;;;5.53;;
9334;SDS011;4706;41.844;26.082;2022-11-30T05:56:11;7.20;;;6.00;;
9334;SDS011;4706;41.844;26.082;2022-11-30T05:58:42;10.15;;;8.63;;
9334;SDS011;4706;41.844;26.082;2022-11-30T06:01:15;11.82;;;9.93;;
9334;SDS011;4706;41.844;26.082;2022-11-30T06:03:46;10.90;;;9.38;;
9334;SDS011;4706;41.844;26.082;2022-11-30T06:06:11;11.45;;;9.80;;
9334;SDS011;4706;41.844;26.082;2022-11-30T06:08:37;29.02;;;22.67;;
9334;SDS011;4706;41.844;26.082;2022-11-30T06:11:03;37.45;;;29.75;;
9334;SDS011;4706;41.844;26.082;2022-11-30T06:13:28;34.92;;;26.38;;
9334;SDS011;4706;41.844;26.082;2022-11-30T06:16:03;49.72;;;38.38;;
9334;SDS011;4706;41.844;26.082;2022-11-30T06:18:29;23.20;;;20.00;;
9334;SDS011;4706;41.844;26.082;2022-11-30T06:20:59;21.70;;;19.23;;
9334;SDS011;4706;41.844;26.082;2022-11-30T06:23:26;45.88;;;33.20;;
9334;SDS011;4706;41.844;26.082;2022-11-30T06:25:52;42.40;;;30.25;;
9334;SDS011;4706;41.844;26.082;2022-11-30T06:28:17;27.42;;;20.45;;
9334;SDS011;4706;41.844;26.082;2022-11-30T06:30:43;20.02;;;15.13;;
9334;SDS011;4706;41.844;26.082;2022-11-30T06:33:08;16.75;;;15.05;;
9334;SDS011;4706;41.844;26.082;2022-11-30T06:35:34;15.05;;;12.57;;
9334;SDS011;4706;41.844;26.082;2022-11-30T06:37:59;11.98;;;10.57;;
9334;SDS011;4706;41.844;26.082;2022-11-30T06:40:25;9.90;;;8.90;;
9334;SDS011;4706;41.844;26.082;2022-11-30T06:42:52;9.60;;;8.55;;
9334;SDS011;4706;41.844;26.082;2022-11-30T06:45:18;14.68;;;12.27;;
9334;SDS011;4706;41.844;26.082;2022-11-30T06:47:43;109.18;;;74.35;;
9334;SDS011;4706;41.844;26.082;2022-11-30T06:50:09;81.88;;;57.00;;
9334;SDS011;4706;41.844;26.082;2022-11-30T06:52:36;37.30;;;28.42;;
9334;SDS011;4706;41.844;26.082;2022-11-30T06:55:02;20.77;;;15.35;;
9334;SDS011;4706;41.844;26.082;2022-11-30T06:57:28;47.65;;;36.92;;
9334;SDS011;4706;41.844;26.082;2022-11-30T06:59:54;20.80;;;16.98;;
9334;SDS011;4706;41.844;26.082;2022-11-30T07:02:20;15.65;;;13.25;;
9334;SDS011;4706;41.844;26.082;2022-11-30T07:04:45;19.48;;;16.48;;
9334;SDS011;4706;41.844;26.082;2022-11-30T07:07:11;15.80;;;14.10;;
9334;SDS011;4706;41.844;26.082;2022-11-30T07:09:36;8.80;;;7.82;;
9334;SDS011;4706;41.844;26.082;2022-11-30T07:12:02;8.35;;;7.07;;
9334;SDS011;4706;41.844;26.082;2022-11-30T07:14:28;5.65;;;4.88;;
9334;SDS011;4706;41.844;26.082;2022-11-30T07:16:55;7.00;;;6.30;;
9334;SDS011;4706;41.844;26.082;2022-11-30T07:19:20;6.82;;;5.80;;
9334;SDS011;4706;41.844;26.082;2022-11-30T07:21:46;7.13;;;6.43;;
9334;SDS011;4706;41.844;26.082;2022-11-30T07:24:11;13.68;;;12.45;;
9334;SDS011;4706;41.844;26.082;2022-11-30T07:26:55;7.07;;;6.38;;
9334;SDS011;4706;41.844;26.082;2022-11-30T07:29:23;5.80;;;5.20;;
9334;SDS011;4706;41.844;26.082;2022-11-30T07:31:49;7.20;;;6.50;;
9334;SDS011;4706;41.844;26.082;2022-11-30T07:34:18;8.52;;;7.82;;
9334;SDS011;4706;41.844;26.082;2022-11-30T07:36:45;9.57;;;8.13;;
9334;SDS011;4706;41.844;26.082;2022-11-30T07:39:11;16.00;;;13.23;;
9334;SDS011;4706;41.844;26.082;2022-11-30T07:41:38;10.57;;;9.48;;
9334;SDS011;4706;41.844;26.082;2022-11-30T07:44:04;11.93;;;10.63;;
9334;SDS011;4706;41.844;26.082;2022-11-30T07:46:30;10.85;;;9.75;;
9334;SDS011;4706;41.844;26.082;2022-11-30T07:48:57;11.32;;;8.57;;
9334;SDS011;4706;41.844;26.082;2022-11-30T07:51:23;13.65;;;10.75;;
9334;SDS011;4706;41.844;26.082;2022-11-30T07:53:49;16.00;;;11.60;;
9334;SDS011;4706;41.844;26.082;2022-11-30T07:56:18;15.68;;;13.98;;
9334;SDS011;4706;41.844;26.082;2022-11-30T07:58:44;19.00;;;17.05;;
9334;SDS011;4706;41.844;26.082;2022-11-30T08:01:12;15.32;;;13.73;;
9334;SDS011;4706;41.844;26.082;2022-11-30T08:03:39;16.48;;;14.77;;
9334;SDS011;4706;41.844;26.082;2022-11-30T08:06:06;9.85;;;8.57;;
9334;SDS011;4706;41.844;26.082;2022-11-30T08:08:33;11.00;;;9.95;;
9334;SDS011;4706;41.844;26.082;2022-11-30T08:11:00;13.52;;;11.13;;
9334;SDS011;4706;41.844;26.082;2022-11-30T08:13:26;12.25;;;11.05;;
9334;SDS011;4706;41.844;26.082;2022-11-30T08:15:53;13.07;;;10.05;;
9334;SDS011;4706;41.844;26.082;2022-11-30T08:18:19;10.48;;;8.70;;
9334;SDS011;4706;41.844;26.082;2022-11-30T08:20:44;10.48;;;8.23;;
9334;SDS011;4706;41.844;26.082;2022-11-30T08:23:10;7.90;;;6.20;;
9334;SDS011;4706;41.844;26.082;2022-11-30T08:25:37;10.15;;;7.93;;
9334;SDS011;4706;41.844;26.082;2022-11-30T08:28:02;12.60;;;7.82;;
9334;SDS011;4706;41.844;26.082;2022-11-30T08:30:28;38.80;;;26.58;;
9334;SDS011;4706;41.844;26.082;2022-11-30T08:32:54;20.10;;;14.45;;
9334;SDS011;4706;41.844;26.082;2022-11-30T08:35:20;18.08;;;13.70;;
9334;SDS011;4706;41.844;26.082;2022-11-30T08:37:46;15.40;;;12.30;;
9334;SDS011;4706;41.844;26.082;2022-11-30T08:40:11;36.97;;;25.63;;
9334;SDS011;4706;41.844;26.082;2022-11-30T08:42:37;12.15;;;10.00;;
9334;SDS011;4706;41.844;26.082;2022-11-30T08:45:02;6.20;;;5.60;;
9334;SDS011;4706;41.844;26.082;2022-11-30T08:47:28;47.55;;;32.65;;
9334;SDS011;4706;41.844;26.082;2022-11-30T08:49:55;20.63;;;15.55;;
9334;SDS011;4706;41.844;26.082;2022-11-30T08:52:21;14.45;;;10.88;;
9334;SDS011;4706;41.844;26.082;2022-11-30T08:54:47;40.08;;;23.23;;
9334;SDS011;4706;41.844;26.082;2022-11-30T08:57:17;9.30;;;8.30;;
9334;SDS011;4706;41.844;26.082;2022-11-30T08:59:44;13.18;;;10.75;;
9334;SDS011;4706;41.844;26.082;2022-11-30T09:02:10;26.58;;;18.77;;
9334;SDS011;4706;41.844;26.082;2022-11-30T09:04:38;16.33;;;11.88;;
9334;SDS011;4706;41.844;26.082;2022-11-30T09:07:04;20.42;;;13.32;;
9334;SDS011;4706;41.844;26.082;2022-11-30T09:09:29;18.23;;;13.48;;
9334;SDS011;4706;41.844;26.082;2022-11-30T09:11:55;9.40;;;8.40;;
9334;SDS011;4706;41.844;26.082;2022-11-30T09:14:21;6.55;;;5.90;;
9334;SDS011;4706;41.844;26.082;2022-11-30T09:16:46;7.57;;;6.82;;
9334;SDS011;4706;41.844;26.082;2022-11-30T09:19:12;6.90;;;5.60;;
9334;SDS011;4706;41.844;26.082;2022-11-30T09:21:37;10.38;;;8.73;;
9334;SDS011;4706;41.844;26.082;2022-11-30T09:24:03;10.10;;;9.10;;
9334;SDS011;4706;41.844;26.082;2022-11-30T09:26:29;8.77;;;7.90;;
9334;SDS011;4706;41.844;26.082;2022-11-30T09:28:54;5.25;;;4.78;;
9334;SDS011;4706;41.844;26.082;2022-11-30T09:31:21;7.45;;;6.78;;
9334;SDS011;4706;41.844;26.082;2022-11-30T09:33:48;7.32;;;6.63;;
9334;SDS011;4706;41.844;26.082;2022-11-30T09:36:15;6.65;;;6.05;;
9334;SDS011;4706;41.844;26.082;2022-11-30T09:38:42;6.25;;;4.55;;
9334;SDS011;4706;41.844;26.082;2022-11-30T09:47:02;8.88;;;7.95;;
9334;SDS011;4706;41.844;26.082;2022-11-30T09:49:42;9.95;;;7.35;;
9334;SDS011;4706;41.844;26.082;2022-11-30T09:52:43;8.18;;;7.38;;
9334;SDS011;4706;41.844;26.082;2022-11-30T09:55:06;7.70;;;6.50;;
9334;SDS011;4706;41.844;26.082;2022-11-30T09:57:44;9.73;;;7.82;;
9334;SDS011;4706;41.844;26.082;2022-11-30T10:00:16;9.57;;;8.30;;
9334;SDS011;4706;41.844;26.082;2022-11-30T10:02:50;11.48;;;9.48;;
9334;SDS011;4706;41.844;26.082;2022-11-30T10:05:24;9.25;;;8.32;;
9334;SDS011;4706;41.844;26.082;2022-11-30T10:10:39;10.35;;;8.82;;
9334;SDS011;4706;41.844;26.082;2022-11-30T10:13:15;7.18;;;6.50;;
9334;SDS011;4706;41.844;26.082;2022-11-30T10:26:15;3.92;;;3.63;;
9334;SDS011;4706;41.844;26.082;2022-11-30T10:28:54;3.70;;;3.40;;
9334;SDS011;4706;41.844;26.082;2022-11-30T10:31:33;4.75;;;3.58;;
9334;SDS011;4706;41.844;26.082;2022-11-30T10:34:11;3.90;;;3.33;;
9334;SDS011;4706;41.844;26.082;2022-11-30T10:36:48;3.03;;;2.72;;
9334;SDS011;4706;41.844;26.082;2022-11-30T10:39:35;3.33;;;3.03;;
9334;SDS011;4706;41.844;26.082;2022-11-30T10:42:20;4.18;;;3.67;;
9334;SDS011;4706;41.844;26.082;2022-11-30T10:44:59;3.67;;;3.38;;
9334;SDS011;4706;41.844;26.082;2022-11-30T10:47:33;3.05;;;2.80;;
9334;SDS011;4706;41.844;26.082;2022-11-30T10:50:04;3.67;;;3.38;;
9334;SDS011;4706;41.844;26.082;2022-11-30T10:52:34;5.60;;;4.95;;
9334;SDS011;4706;41.844;26.082;2022-11-30T10:55:20;3.88;;;3.58;;
9334;SDS011;4706;41.844;26.082;2022-11-30T10:57:54;4.65;;;4.07;;
9334;SDS011;4706;41.844;26.082;2022-11-30T11:00:24;3.60;;;3.30;;
9334;SDS011;4706;41.844;26.082;2022-11-30T11:02:50;3.05;;;2.75;;
9334;SDS011;4706;41.844;26.082;2022-11-30T11:05:23;3.40;;;2.63;;
9334;SDS011;4706;41.844;26.082;2022-11-30T11:07:54;3.00;;;2.58;;
9334;SDS011;4706;41.844;26.082;2022-11-30T11:10:30;3.17;;;2.50;;
9334;SDS011;4706;41.844;26.082;2022-11-30T11:12:59;3.50;;;2.92;;
9334;SDS011;4706;41.844;26.082;2022-11-30T11:15:26;2.50;;;2.30;;
9334;SDS011;4706;41.844;26.082;2022-11-30T11:17:56;4.90;;;4.40;;
9334;SDS011;4706;41.844;26.082;2022-11-30T11:21:00;2.25;;;2.05;;
9334;SDS011;4706;41.844;26.082;2022-11-30T11:23:34;3.78;;;3.47;;
9334;SDS011;4706;41.844;26.082;2022-11-30T11:28:47;2.40;;;2.20;;
9334;SDS011;4706;41.844;26.082;2022-11-30T11:31:21;4.93;;;4.43;;
9334;SDS011;4706;41.844;26.082;2022-11-30T11:33:56;4.30;;;3.22;;
9334;SDS011;4706;41.844;26.082;2022-11-30T11:36:26;4.97;;;3.33;;
9334;SDS011;4706;41.844;26.082;2022-11-30T11:38:56;10.43;;;5.88;;
9334;SDS011;4706;41.844;26.082;2022-11-30T11:41:27;8.10;;;6.15;;
9334;SDS011;4706;41.844;26.082;2022-11-30T11:44:02;3.78;;;3.08;;
9334;SDS011;4706;41.844;26.082;2022-11-30T11:46:33;13.05;;;11.77;;
9334;SDS011;4706;41.844;26.082;2022-11-30T11:49:37;45.00;;;40.45;;
9334;SDS011;4706;41.844;26.082;2022-11-30T11:54:34;28.83;;;26.23;;
9334;SDS011;4706;41.844;26.082;2022-11-30T11:57:13;6.70;;;6.10;;
9334;SDS011;4706;41.844;26.082;2022-11-30T11:59:43;10.23;;;9.23;;
9334;SDS011;4706;41.844;26.082;2022-11-30T12:02:41;8.95;;;8.05;;
9334;SDS011;4706;41.844;26.082;2022-11-30T12:10:36;2.50;;;2.30;;
9334;SDS011;4706;41.844;26.082;2022-11-30T12:13:09;2.40;;;2.20;;
9334;SDS011;4706;41.844;26.082;2022-11-30T12:15:49;3.30;;;3.00;;
9334;SDS011;4706;41.844;26.082;2022-11-30T12:18:27;2.58;;;2.38;;
9334;SDS011;4706;41.844;26.082;2022-11-30T12:24:02;3.60;;;3.30;;
9334;SDS011;4706;41.844;26.082;2022-11-30T12:42:15;8.60;;;7.68;;
9334;SDS011;4706;41.844;26.082;2022-11-30T12:47:28;11.85;;;9.80;;
9334;SDS011;4706;41.844;26.082;2022-11-30T12:50:05;19.00;;;14.93;;
9334;SDS011;4706;41.844;26.082;2022-11-30T12:52:43;13.88;;;10.93;;
9334;SDS011;4706;41.844;26.082;2022-11-30T12:55:25;8.98;;;8.07;;
9334;SDS011;4706;41.844;26.082;2022-11-30T13:00:38;7.13;;;6.43;;
9334;SDS011;4706;41.844;26.082;2022-11-30T13:03:30;7.55;;;6.85;;
9334;SDS011;4706;41.844;26.082;2022-11-30T13:06:50;6.70;;;6.10;;
9334;SDS011;4706;41.844;26.082;2022-11-30T13:09:09;4.32;;;3.90;;
9334;SDS011;4706;41.844;26.082;2022-11-30T13:11:51;9.23;;;8.32;;
9334;SDS011;4706;41.844;26.082;2022-11-30T13:14:21;11.10;;;10.00;;
9334;SDS011;4706;41.844;26.082;2022-11-30T13:16:49;11.10;;;9.60;;
9334;SDS011;4706;41.844;26.082;2022-11-30T13:22:06;10.55;;;9.45;;
9334;SDS011;4706;41.844;26.082;2022-11-30T13:24:39;10.05;;;8.98;;
9334;SDS011;4706;41.844;26.082;2022-11-30T13:27:21;8.35;;;7.55;;
9334;SDS011;4706;41.844;26.082;2022-11-30T13:30:00;10.27;;;9.25;;
9334;SDS011;4706;41.844;26.082;2022-11-30T13:32:32;8.80;;;7.90;;
9334;SDS011;4706;41.844;26.082;2022-11-30T13:38:01;9.40;;;8.40;;
9334;SDS011;4706;41.844;26.082;2022-11-30T13:40:39;12.88;;;11.57;;
9334;SDS011;4706;41.844;26.082;2022-11-30T13:43:12;11.95;;;10.75;;
9334;SDS011;4706;41.844;26.082;2022-11-30T13:45:41;13.55;;;12.15;;
9334;SDS011;4706;41.844;26.082;2022-11-30T13:51:04;12.65;;;11.35;;
9334;SDS011;4706;41.844;26.082;2022-11-30T13:53:31;10.60;;;9.50;;
9334;SDS011;4706;41.844;26.082;2022-11-30T14:01:47;9.80;;;8.82;;
9334;SDS011;4706;41.844;26.082;2022-11-30T14:09:15;8.45;;;7.65;;
9334;SDS011;4706;41.844;26.082;2022-11-30T14:14:59;8.27;;;7.47;;
9334;SDS011;4706;41.844;26.082;2022-11-30T14:17:26;7.43;;;6.72;;
9334;SDS011;4706;41.844;26.082;2022-11-30T14:19:58;8.43;;;7.72;;
9334;SDS011;4706;41.844;26.082;2022-11-30T14:22:31;7.00;;;6.30;;
9334;SDS011;4706;41.844;26.082;2022-11-30T14:24:57;16.77;;;15.20;;
9334;SDS011;4706;41.844;26.082;2022-11-30T14:27:24;28.10;;;24.70;;
9334;SDS011;4706;41.844;26.082;2022-11-30T14:29:53;11.77;;;10.57;;
9334;SDS011;4706;41.844;26.082;2022-11-30T14:32:38;38.55;;;30.83;;
9334;SDS011;4706;41.844;26.082;2022-11-30T14:35:11;31.20;;;25.27;;
9334;SDS011;4706;41.844;26.082;2022-11-30T14:37:41;17.60;;;15.75;;
9334;SDS011;4706;41.844;26.082;2022-11-30T14:40:14;17.00;;;15.05;;
9334;SDS011;4706;41.844;26.082;2022-11-30T14:42:45;29.73;;;23.73;;
9334;SDS011;4706;41.844;26.082;2022-11-30T14:45:19;12.30;;;11.05;;
9334;SDS011;4706;41.844;26.082;2022-11-30T14:48:12;10.35;;;7.70;;
9334;SDS011;4706;41.844;26.082;2022-11-30T14:53:36;104.35;;;55.00;;
9334;SDS011;4706;41.844;26.082;2022-11-30T15:04:54;30.13;;;21.42;;
9334;SDS011;4706;41.844;26.082;2022-11-30T15:07:22;49.40;;;34.50;;
9334;SDS011;4706;41.844;26.082;2022-11-30T15:09:50;56.50;;;44.83;;
9334;SDS011;4706;41.844;26.082;2022-11-30T15:12:21;34.75;;;26.25;;
9334;SDS011;4706;41.844;26.082;2022-11-30T15:17:29;24.02;;;21.52;;
9334;SDS011;4706;41.844;26.082;2022-11-30T15:19:55;25.88;;;22.40;;
9334;SDS011;4706;41.844;26.082;2022-11-30T15:22:21;12.43;;;11.13;;
9334;SDS011;4706;41.844;26.082;2022-11-30T15:24:47;16.08;;;14.38;;
9334;SDS011;4706;41.844;26.082;2022-11-30T15:27:13;7.95;;;6.40;;
9334;SDS011;4706;41.844;26.082;2022-11-30T15:29:43;8.18;;;7.38;;
9334;SDS011;4706;41.844;26.082;2022-11-30T15:32:14;30.83;;;27.33;;
9334;SDS011;4706;41.844;26.082;2022-11-30T15:37:11;17.70;;;16.00;;
9334;SDS011;4706;41.844;26.082;2022-11-30T15:39:37;18.77;;;14.80;;
9334;SDS011;4706;41.844;26.082;2022-11-30T15:42:05;30.92;;;22.42;;
9334;SDS011;4706;41.844;26.082;2022-11-30T15:44:40;34.63;;;27.88;;
9334;SDS011;4706;41.844;26.082;2022-11-30T15:49:59;12.82;;;11.38;;
9334;SDS011;4706;41.844;26.082;2022-11-30T15:52:26;15.63;;;14.02;;
9334;SDS011;4706;41.844;26.082;2022-11-30T15:54:56;18.67;;;16.17;;
9334;SDS011;4706;41.844;26.082;2022-11-30T15:57:26;11.27;;;9.55;;
9334;SDS011;4706;41.844;26.082;2022-11-30T16:02:40;10.73;;;8.63;;
9334;SDS011;4706;41.844;26.082;2022-11-30T16:05:27;16.33;;;14.63;;
9334;SDS011;4706;41.844;26.082;2022-11-30T16:07:55;10.50;;;9.40;;
9334;SDS011;4706;41.844;26.082;2022-11-30T16:10:28;10.65;;;9.52;;
9334;SDS011;4706;41.844;26.082;2022-11-30T16:12:58;8.73;;;7.80;;
9334;SDS011;4706;41.844;26.082;2022-11-30T16:15:25;11.60;;;8.98;;
9334;SDS011;4706;41.844;26.082;2022-11-30T16:17:58;16.33;;;14.27;;
9334;SDS011;4706;41.844;26.082;2022-11-30T16:20:32;8.40;;;7.60;;
9334;SDS011;4706;41.844;26.082;2022-11-30T16:22:58;15.98;;;14.27;;
9334;SDS011;4706;41.844;26.082;2022-11-30T16:25:24;13.02;;;11.65;;
9334;SDS011;4706;41.844;26.082;2022-11-30T16:27:50;13.63;;;12.18;;
9334;SDS011;4706;41.844;26.082;2022-11-30T16:30:18;12.27;;;10.95;;
9334;SDS011;4706;41.844;26.082;2022-11-30T16:32:45;20.85;;;16.75;;
9334;SDS011;4706;41.844;26.082;2022-11-30T16:37:45;9.35;;;8.43;;
9334;SDS011;4706;41.844;26.082;2022-11-30T16:40:12;6.88;;;6.18;;
9334;SDS011;4706;41.844;26.082;2022-11-30T16:42:38;19.98;;;17.92;;
9334;SDS011;4706;41.844;26.082;2022-11-30T16:45:04;3.97;;;3.60;;
9334;SDS011;4706;41.844;26.082;2022-11-30T16:47:29;7.03;;;6.10;;
9334;SDS011;4706;41.844;26.082;2022-11-30T16:49:55;13.93;;;12.45;;
9334;SDS011;4706;41.844;26.082;2022-11-30T16:52:21;9.48;;;8.45;;
9334;SDS011;4706;41.844;26.082;2022-11-30T16:54:46;15.70;;;12.23;;